createdAt,value
2018-01-07T00:02:53.204Z,200.43
2018-01-07T00:05:25.234Z,220.10
2018-01-07T00:07:59.467Z,192.33
2018-01-07T00:10:43.646Z,170.17
2018-01-07T00:13:17.688Z,166.70
2018-01-07T00:15:45.350Z,163.37
2018-01-07T00:18:12.066Z,156.23
2018-01-07T00:20:43.647Z,145.33
2018-01-07T00:23:22.980Z,144.03
2018-01-07T00:25:49.791Z,147.67
2018-01-07T00:28:19.526Z,168.90
2018-01-07T00:30:46.276Z,170.93
2018-01-07T00:33:26.906Z,172.13
2018-01-07T00:38:41.733Z,178.07
2018-01-07T00:43:54.816Z,223.87
2018-01-07T01:00:08.835Z,244.63
2018-01-07T01:02:37.568Z,257.73
2018-01-07T01:05:06.225Z,249.37
2018-01-07T01:07:32.919Z,256.37
2018-01-07T01:10:00.484Z,254.27
2018-01-07T01:12:27.178Z,249.53
2018-01-07T01:14:54.598Z,255.13
2018-01-07T01:17:21.313Z,260.60
2018-01-07T01:19:49.039Z,255.10
2018-01-07T01:22:15.763Z,251.07
2018-01-07T01:24:47.994Z,247.77
2018-01-07T01:30:03.710Z,239.83
2018-01-07T01:32:35.443Z,232.60
2018-01-07T01:35:03.155Z,243.17
2018-01-07T01:37:30.870Z,235.97
2018-01-07T01:39:59.562Z,238.90
2018-01-07T01:42:27.258Z,245.43
2018-01-07T01:45:10.822Z,238.53
2018-01-07T01:47:43.879Z,225.97
2018-01-07T01:50:26.283Z,208.33
2018-01-07T01:52:55.082Z,232.57
2018-01-07T01:55:23.763Z,230.57
2018-01-07T01:57:56.442Z,214.37
2018-01-07T02:03:08.563Z,229.57
2018-01-07T02:08:21.871Z,232.43
2018-01-07T02:10:56.867Z,219.20
2018-01-07T02:13:23.651Z,208.30
2018-01-07T02:15:54.643Z,206.80
2018-01-07T02:21:15.547Z,228.77
2018-01-07T02:23:44.353Z,227.77
2018-01-07T02:26:17.944Z,213.23
2018-01-07T02:28:44.672Z,211.27
2018-01-07T02:31:11.390Z,201.80
2018-01-07T02:33:38.112Z,201.23
2018-01-07T02:38:55.465Z,177.23
2018-01-07T02:41:22.211Z,174.57
2018-01-07T02:43:48.938Z,165.47
2018-01-07T02:46:19.168Z,186.37
2018-01-07T02:48:47.877Z,220.07
2018-01-07T02:51:18.663Z,203.97
2018-01-07T02:53:51.612Z,176.77
2018-01-07T02:56:25.057Z,189.33
2018-01-07T02:58:51.763Z,202.23
2018-01-07T03:01:31.974Z,201.57
2018-01-07T03:03:58.704Z,234.97
2018-01-07T03:06:26.404Z,223.47
2018-01-07T03:08:55.095Z,186.40
2018-01-07T03:11:26.360Z,206.87
2018-01-07T03:13:55.034Z,187.70
2018-01-07T03:16:28.034Z,191.63
2018-01-07T03:21:43.036Z,212.97
2018-01-07T03:24:21.518Z,235.20
2018-01-07T03:26:54.266Z,229.50
2018-01-07T03:29:22.910Z,197.80
2018-01-07T03:40:13.139Z,188.63
2018-01-07T03:42:50.386Z,167.03
2018-01-07T03:45:17.110Z,172.47
2018-01-07T03:53:22.502Z,155.60
2018-01-07T03:55:54.952Z,153.90
2018-01-07T03:58:28.716Z,144.30
2018-01-07T04:00:56.448Z,144.77
2018-01-07T04:03:23.143Z,166.07
2018-01-07T04:05:49.887Z,163.70
2018-01-07T04:08:17.614Z,160.67
2018-01-07T04:13:37.301Z,156.70
2018-01-07T04:16:08.082Z,152.67
2018-01-07T04:18:52.174Z,155.70
2018-01-07T04:21:23.295Z,145.73
2018-01-07T04:24:04.205Z,154.60
2018-01-07T04:26:46.014Z,150.80
2018-01-07T04:29:12.714Z,140.73
2018-01-07T04:31:49.236Z,130.07
2018-01-07T04:34:15.930Z,124.63
2018-01-07T04:36:47.396Z,128.20
2018-01-07T04:39:15.318Z,131.07
2018-01-07T04:41:44.274Z,119.30
2018-01-07T04:44:11.972Z,120.83
2018-01-07T04:46:40.700Z,139.93
2018-01-07T04:49:18.040Z,168.37
2018-01-07T04:54:29.930Z,132.33
2018-01-07T04:57:09.082Z,143.83
2018-01-07T04:59:46.011Z,136.13
2018-01-07T05:02:26.219Z,137.33
2018-01-07T05:04:53.931Z,131.90
2018-01-07T05:07:27.422Z,145.23
2018-01-07T05:10:01.937Z,149.70
2018-01-07T05:12:43.101Z,141.23
2018-01-07T05:15:26.680Z,138.40
2018-01-07T05:17:53.428Z,137.57
2018-01-07T05:25:53.076Z,129.53
2018-01-07T05:28:30.822Z,133.20
2018-01-07T05:34:01.513Z,134.80
2018-01-07T05:36:30.242Z,134.33
2018-01-07T05:39:10.456Z,127.37
2018-01-07T05:41:43.731Z,130.50
2018-01-07T05:44:10.510Z,127.70
2018-01-07T05:46:41.480Z,127.90
2018-01-07T05:49:08.174Z,129.50
2018-01-07T05:51:45.769Z,127.43
2018-01-07T05:54:18.531Z,129.13
2018-01-07T05:56:51.024Z,135.60
2018-01-07T05:59:23.590Z,127.37
2018-01-07T06:01:57.925Z,126.23
2018-01-07T06:04:40.956Z,129.37
2018-01-07T06:07:16.363Z,129.73
2018-01-07T06:09:43.059Z,135.63
2018-01-07T06:12:14.673Z,127.07
2018-01-07T06:14:43.411Z,126.37
2018-01-07T06:17:17.579Z,126.00
2018-01-07T06:19:50.175Z,129.40
2018-01-07T06:22:17.822Z,139.20
2018-01-07T06:24:59.206Z,143.93
2018-01-07T06:27:26.005Z,136.87
2018-01-07T06:29:52.720Z,141.43
2018-01-07T06:32:25.993Z,134.97
2018-01-07T06:34:52.682Z,135.67
2018-01-07T06:37:37.501Z,133.03
2018-01-07T06:40:10.487Z,126.00
2018-01-07T06:50:53.551Z,114.23
2018-01-07T06:53:22.201Z,114.50
2018-01-07T06:55:57.004Z,110.73
2018-01-07T06:58:38.710Z,99.43
2018-01-07T07:01:05.417Z,101.57
2018-01-07T07:06:22.142Z,100.23
2018-01-07T07:08:56.858Z,102.70
2018-01-07T07:11:36.533Z,93.30
2018-01-07T07:14:03.280Z,86.60
2018-01-07T07:16:35.079Z,81.70
2018-01-07T07:19:01.773Z,72.57
2018-01-07T07:21:38.157Z,76.03
2018-01-07T07:24:08.626Z,69.73
2018-01-07T07:26:41.411Z,67.20
2018-01-07T07:32:05.615Z,65.47
2018-01-07T07:34:44.381Z,67.80
2018-01-07T07:42:43.405Z,74.33
2018-01-07T07:45:14.847Z,66.33
2018-01-07T07:47:42.459Z,71.87
2018-01-07T07:50:10.496Z,72.60
2018-01-07T07:52:37.229Z,65.23
2018-01-07T07:55:04.883Z,63.07
2018-01-07T07:57:31.786Z,78.27
2018-01-07T07:59:58.467Z,60.10
2018-01-07T08:02:25.197Z,60.53
2018-01-07T08:04:51.919Z,59.27
2018-01-07T08:07:18.619Z,60.77
2018-01-07T08:09:45.317Z,67.77
2018-01-07T08:12:12.019Z,62.60
2018-01-07T08:14:38.743Z,66.37
2018-01-07T08:17:05.899Z,56.97
2018-01-07T08:19:32.623Z,58.70
2018-01-07T08:22:05.137Z,59.57
2018-01-07T08:24:36.787Z,65.80
2018-01-07T08:27:09.657Z,69.63
2018-01-07T08:29:52.660Z,56.80
2018-01-07T08:32:22.936Z,58.13
2018-01-07T08:34:49.699Z,54.13
2018-01-07T08:37:16.577Z,56.90
2018-01-07T08:42:30.073Z,48.03
2018-01-07T08:44:59.918Z,50.00
2018-01-07T08:47:30.703Z,50.23
2018-01-07T08:50:01.065Z,50.67
2018-01-07T08:52:31.299Z,53.23
2018-01-07T08:54:57.983Z,48.67
2018-01-07T08:57:37.145Z,45.73
2018-01-07T09:00:03.921Z,51.20
2018-01-07T09:02:32.632Z,52.83
2018-01-07T09:04:59.373Z,48.77
2018-01-07T09:07:26.241Z,42.63
2018-01-07T09:09:52.953Z,45.77
2018-01-07T09:12:20.244Z,42.60
2018-01-07T09:14:46.949Z,41.77
2018-01-07T09:17:13.687Z,59.63
2018-01-07T09:19:40.401Z,68.93
2018-01-07T09:22:08.095Z,57.10
2018-01-07T09:24:34.781Z,49.37
2018-01-07T09:27:07.622Z,52.63
2018-01-07T09:29:34.319Z,52.90
2018-01-07T09:32:20.047Z,51.77
2018-01-07T09:34:46.769Z,47.73
2018-01-07T09:37:20.509Z,40.87
2018-01-07T09:39:47.217Z,34.63
2018-01-07T09:42:14.004Z,32.73
2018-01-07T09:44:40.737Z,39.70
2018-01-07T09:47:07.428Z,38.37
2018-01-07T09:49:34.127Z,39.13
2018-01-07T09:52:08.993Z,32.93
2018-01-07T09:54:35.687Z,23.40
2018-01-07T09:57:02.423Z,26.40
2018-01-07T09:59:29.176Z,29.67
2018-01-07T10:01:55.873Z,27.53
2018-01-07T10:04:22.563Z,29.83
2018-01-07T10:06:49.559Z,29.97
2018-01-07T10:09:16.255Z,36.30
2018-01-07T10:11:42.952Z,32.10
2018-01-07T10:14:10.719Z,27.97
2018-01-07T10:16:37.406Z,26.70
2018-01-07T10:21:49.807Z,30.40
2018-01-07T10:24:16.503Z,33.03
2018-01-07T10:26:43.201Z,41.63
2018-01-07T10:29:09.907Z,49.63
2018-01-07T10:31:36.681Z,52.07
2018-01-07T10:34:03.392Z,46.83
2018-01-07T10:36:30.088Z,50.60
2018-01-07T10:38:56.803Z,51.60
2018-01-07T10:41:23.491Z,49.23
2018-01-07T10:43:54.475Z,49.03
2018-01-07T10:46:21.285Z,51.57
2018-01-07T10:48:47.975Z,53.70
2018-01-07T10:51:14.668Z,57.17
2018-01-07T10:53:41.386Z,57.97
2018-01-07T10:56:12.924Z,62.07
2018-01-07T10:58:39.628Z,60.87
2018-01-07T11:01:12.068Z,56.90
2018-01-07T11:03:38.758Z,51.40
2018-01-07T11:06:05.438Z,57.50
2018-01-07T11:08:32.233Z,60.10
2018-01-07T11:10:58.952Z,64.43
2018-01-07T11:13:25.692Z,49.87
2018-01-07T11:15:52.416Z,39.17
2018-01-07T11:18:23.036Z,48.33
2018-01-07T11:20:49.860Z,46.17
2018-01-07T11:23:17.481Z,38.60
2018-01-07T11:25:44.185Z,33.63
2018-01-07T11:28:10.866Z,35.40
2018-01-07T11:30:37.592Z,38.17
2018-01-07T11:33:04.288Z,37.27
2018-01-07T11:35:30.965Z,37.27
2018-01-07T11:37:58.224Z,39.03
2018-01-07T11:40:25.001Z,40.67
2018-01-07T11:42:51.697Z,44.50
2018-01-07T11:45:18.416Z,44.33
2018-01-07T11:47:45.566Z,43.70
2018-01-07T11:50:12.258Z,39.10
2018-01-07T11:52:38.973Z,40.80
2018-01-07T11:55:05.654Z,37.13
2018-01-07T11:57:32.356Z,35.40
2018-01-07T11:59:59.061Z,41.13
2018-01-07T12:02:26.374Z,36.70
2018-01-07T12:04:53.122Z,38.90
2018-01-07T12:07:19.842Z,37.60
2018-01-07T12:10:05.051Z,41.47
2018-01-07T12:12:31.779Z,44.37
2018-01-07T12:14:58.472Z,43.80
2018-01-07T12:17:25.158Z,44.60
2018-01-07T12:19:51.856Z,49.20
2018-01-07T12:22:18.547Z,50.97
2018-01-07T12:24:45.246Z,54.43
2018-01-07T12:27:11.970Z,58.77
2018-01-07T12:29:38.674Z,56.07
2018-01-07T12:32:05.369Z,59.43
2018-01-07T12:34:32.082Z,52.50
2018-01-07T12:36:58.774Z,43.83
2018-01-07T12:39:25.703Z,43.37
2018-01-07T12:41:52.990Z,43.87
2018-01-07T12:44:19.732Z,51.03
2018-01-07T12:46:49.490Z,55.20
2018-01-07T12:49:16.196Z,49.73
2018-01-07T12:51:42.910Z,45.17
2018-01-07T12:54:09.672Z,43.00
2018-01-07T12:56:36.441Z,35.23
2018-01-07T12:59:03.130Z,32.70
2018-01-07T13:01:29.817Z,33.87
2018-01-07T13:03:56.519Z,38.07
2018-01-07T13:06:23.216Z,38.47
2018-01-07T13:08:49.955Z,39.37
2018-01-07T13:11:16.703Z,45.63
2018-01-07T13:13:43.388Z,42.07
2018-01-07T13:16:10.120Z,44.80
2018-01-07T13:18:36.856Z,43.30
2018-01-07T13:21:03.539Z,47.97
2018-01-07T13:23:30.233Z,55.10
2018-01-07T13:25:56.937Z,53.87
2018-01-07T13:28:23.616Z,56.97
2018-01-07T13:30:50.320Z,58.47
2018-01-07T13:33:17.056Z,46.10
2018-01-07T13:35:43.765Z,64.87
2018-01-07T13:38:10.464Z,53.47
2018-01-07T13:40:37.195Z,48.17
2018-01-07T13:43:03.879Z,53.43
2018-01-07T13:45:36.086Z,57.03
2018-01-07T13:48:02.924Z,58.83
2018-01-07T13:50:29.631Z,65.37
2018-01-07T13:53:00.649Z,64.00
2018-01-07T13:58:00.470Z,67.83
2018-01-07T14:00:34.314Z,65.63
2018-01-07T14:03:01.051Z,61.90
2018-01-07T14:05:37.898Z,54.33
2018-01-07T14:08:09.174Z,55.77
2018-01-07T14:10:38.850Z,57.13
2018-01-07T14:15:59.369Z,60.90
2018-01-07T14:23:55.200Z,60.47
2018-01-07T14:26:41.596Z,62.90
2018-01-07T14:29:12.071Z,50.20
2018-01-07T14:31:38.815Z,53.73
2018-01-07T14:34:06.527Z,43.77
2018-01-07T14:36:36.016Z,33.43
2018-01-07T14:39:02.722Z,41.63
2018-01-07T14:41:29.411Z,46.93
2018-01-07T14:43:56.092Z,55.10
2018-01-07T14:46:22.794Z,44.90
2018-01-07T14:48:49.485Z,41.50
2018-01-07T14:51:16.432Z,38.47
2018-01-07T14:53:43.148Z,40.30
2018-01-07T14:56:10.504Z,41.33
2018-01-07T14:58:37.199Z,35.10
2018-01-07T15:01:03.916Z,34.00
2018-01-07T15:03:30.594Z,28.47
2018-01-07T15:05:57.298Z,37.97
2018-01-07T15:08:24.995Z,40.37
2018-01-07T15:10:51.986Z,39.47
2018-01-07T15:13:20.402Z,40.97
2018-01-07T15:15:47.124Z,36.47
2018-01-07T15:18:13.812Z,37.47
2018-01-07T15:20:40.515Z,46.17
2018-01-07T15:26:04.196Z,35.40
2018-01-07T15:28:32.539Z,45.20
2018-01-07T15:30:59.251Z,37.60
2018-01-07T15:33:25.938Z,40.50
2018-01-07T15:35:52.670Z,41.90
2018-01-07T15:38:19.410Z,29.70
2018-01-07T15:40:46.350Z,39.83
2018-01-07T15:43:13.090Z,44.13
2018-01-07T15:45:43.208Z,35.00
2018-01-07T15:48:09.893Z,44.83
2018-01-07T15:50:36.590Z,42.87
2018-01-07T15:53:03.284Z,39.83
2018-01-07T15:55:29.974Z,33.33
2018-01-07T15:57:59.575Z,37.53
2018-01-07T16:00:26.316Z,38.53
2018-01-07T16:05:39.920Z,37.83
2018-01-07T16:08:07.641Z,38.20
2018-01-07T16:10:34.355Z,42.70
2018-01-07T16:13:04.432Z,47.93
2018-01-07T16:15:31.214Z,38.23
2018-01-07T16:17:57.973Z,37.03
2018-01-07T16:20:29.054Z,41.73
2018-01-07T16:22:55.780Z,38.83
2018-01-07T16:25:23.104Z,37.93
2018-01-07T16:27:49.796Z,37.77
2018-01-07T16:30:16.504Z,43.40
2018-01-07T16:32:43.224Z,29.33
2018-01-07T16:35:09.936Z,30.67
2018-01-07T16:37:37.732Z,40.27
2018-01-07T16:40:04.451Z,41.17
2018-01-07T16:42:31.222Z,41.87
2018-01-07T16:44:58.030Z,43.17
2018-01-07T16:47:26.782Z,34.77
2018-01-07T16:49:53.524Z,36.80
2018-01-07T16:52:20.222Z,35.10
2018-01-07T16:54:47.697Z,36.50
2018-01-07T16:57:14.870Z,29.80
2018-01-07T16:59:41.567Z,31.80
2018-01-07T17:02:08.310Z,37.20
2018-01-07T17:04:35.018Z,34.40
2018-01-07T17:07:01.720Z,33.10
2018-01-07T17:09:28.439Z,35.90
2018-01-07T17:11:55.138Z,35.60
2018-01-07T17:14:21.837Z,40.97
2018-01-07T17:16:48.536Z,45.33
2018-01-07T17:19:15.229Z,42.67
2018-01-07T17:21:41.938Z,40.60
2018-01-07T17:24:08.665Z,40.20
2018-01-07T17:26:35.356Z,41.87
2018-01-07T17:29:02.052Z,37.57
2018-01-07T17:31:28.762Z,42.70
2018-01-07T17:33:55.462Z,38.20
2018-01-07T17:36:22.770Z,42.00
2018-01-07T17:38:49.495Z,37.60
2018-01-07T17:41:16.190Z,31.07
2018-01-07T17:43:48.758Z,37.93
2018-01-07T17:46:16.434Z,39.20
2018-01-07T17:48:43.130Z,38.47
2018-01-07T17:51:09.843Z,38.63
2018-01-07T17:53:36.726Z,37.73
2018-01-07T17:56:03.430Z,42.27
2018-01-07T17:58:34.428Z,40.27
2018-01-07T18:01:05.976Z,37.83
2018-01-07T18:03:34.674Z,39.40
2018-01-07T18:06:01.404Z,27.70
2018-01-07T18:08:28.135Z,26.43
2018-01-07T18:10:54.831Z,29.20
2018-01-07T18:13:21.531Z,24.07
2018-01-07T18:15:48.746Z,22.60
2018-01-07T18:18:15.442Z,19.53
2018-01-07T18:20:42.130Z,18.00
2018-01-07T18:23:09.147Z,17.97
2018-01-07T18:25:35.830Z,18.33
2018-01-07T18:28:02.744Z,16.40
2018-01-07T18:30:30.096Z,15.07
2018-01-07T18:32:56.784Z,16.07
2018-01-07T18:35:23.502Z,15.43
2018-01-07T18:37:50.230Z,16.43
2018-01-07T18:40:16.914Z,19.10
2018-01-07T18:42:43.622Z,17.53
2018-01-07T18:45:10.360Z,21.27
2018-01-07T18:47:37.167Z,20.23
2018-01-07T18:50:03.900Z,23.63
2018-01-07T18:52:30.596Z,22.67
2018-01-07T18:54:57.292Z,16.60
2018-01-07T18:57:24.657Z,15.53
2018-01-07T18:59:51.365Z,18.93
2018-01-07T19:02:18.080Z,15.60
2018-01-07T19:04:44.854Z,21.93
2018-01-07T19:07:11.550Z,19.00
2018-01-07T19:09:38.256Z,18.13
2018-01-07T19:12:05.870Z,17.83
2018-01-07T19:14:32.608Z,21.93
2018-01-07T19:16:59.293Z,17.90
2018-01-07T19:22:27.598Z,19.60
2018-01-07T19:28:37.517Z,22.50
2018-01-07T19:31:10.721Z,26.60
2018-01-07T19:36:16.903Z,26.13
2018-01-07T19:44:15.644Z,19.00
2018-01-07T19:46:42.630Z,21.73
2018-01-07T19:49:09.361Z,23.63
2018-01-07T19:51:36.149Z,23.53
2018-01-07T19:54:03.085Z,23.60
2018-01-07T19:56:30.106Z,24.40
2018-01-07T19:58:56.923Z,25.40
2018-01-07T20:01:23.953Z,24.13
2018-01-07T20:03:50.962Z,20.60
2018-01-07T20:06:18.124Z,25.73
2018-01-07T20:08:44.857Z,23.63
2018-01-07T20:11:11.825Z,23.30
2018-01-07T20:13:38.867Z,26.13
2018-01-07T20:16:05.860Z,26.03
2018-01-07T20:18:33.812Z,26.70
2018-01-07T20:21:00.570Z,27.40
2018-01-07T20:23:27.537Z,23.93
2018-01-07T20:25:54.565Z,22.77
2018-01-07T20:28:21.593Z,27.87
2018-01-07T20:30:48.592Z,31.00
2018-01-07T20:33:15.401Z,28.30
2018-01-07T20:35:42.120Z,31.57
2018-01-07T20:38:09.084Z,28.60
2018-01-07T20:40:35.844Z,31.73
2018-01-07T20:43:02.579Z,28.70
2018-01-07T20:45:30.069Z,31.90
2018-01-07T20:47:56.774Z,33.20
2018-01-07T20:50:23.503Z,36.17
2018-01-07T20:52:50.203Z,30.33
2018-01-07T20:58:13.092Z,30.77
2018-01-07T21:00:39.793Z,29.33
2018-01-07T21:03:06.487Z,34.23
2018-01-07T21:05:33.189Z,34.07
2018-01-07T21:08:01.826Z,38.10
2018-01-07T21:10:28.509Z,36.77
2018-01-07T21:12:55.206Z,45.00
2018-01-07T21:15:21.951Z,37.60
2018-01-07T21:17:48.644Z,45.07
2018-01-07T21:20:15.371Z,37.60
2018-01-07T21:22:42.088Z,46.70
2018-01-07T21:27:54.026Z,42.93
2018-01-07T21:30:20.765Z,46.40
2018-01-07T21:32:47.450Z,38.50
2018-01-07T21:35:14.172Z,40.10
2018-01-07T21:37:40.887Z,37.60
2018-01-07T21:40:07.586Z,40.07
2018-01-07T21:42:35.323Z,42.73
2018-01-07T21:45:02.020Z,44.13
2018-01-07T21:47:28.710Z,39.67
2018-01-07T21:49:57.530Z,38.53
2018-01-07T21:55:24.917Z,32.83
2018-01-07T22:00:43.335Z,25.97
2018-01-07T22:06:07.195Z,32.10
2018-01-07T22:08:40.581Z,27.77
2018-01-07T22:11:10.684Z,23.63
2018-01-07T22:13:44.149Z,29.57
2018-01-07T22:16:23.551Z,25.40
2018-01-07T22:18:51.250Z,22.80
2018-01-07T22:21:31.886Z,24.73
2018-01-07T22:24:08.797Z,27.40
2018-01-07T22:26:35.552Z,21.97
2018-01-07T22:29:08.739Z,21.07
2018-01-07T22:31:43.303Z,25.17
2018-01-07T22:34:14.545Z,23.27
2018-01-07T22:39:29.849Z,22.87
2018-01-07T22:42:10.776Z,25.20
2018-01-07T22:44:56.254Z,26.83
2018-01-07T22:47:39.106Z,27.30
2018-01-07T22:50:19.946Z,25.00
2018-01-07T22:53:05.539Z,27.10
2018-01-07T22:55:32.256Z,26.60
2018-01-07T22:58:06.263Z,28.03
2018-01-07T23:00:41.346Z,28.90
2018-01-07T23:03:21.813Z,26.77
2018-01-07T23:08:36.965Z,29.13
2018-01-07T23:11:08.483Z,23.87
2018-01-07T23:13:38.234Z,27.90
2018-01-07T23:16:07.831Z,24.07
2018-01-07T23:18:34.573Z,25.87
2018-01-07T23:21:01.346Z,27.43
2018-01-07T23:23:39.809Z,23.13
2018-01-07T23:26:06.879Z,25.47
2018-01-07T23:28:33.607Z,26.60
2018-01-07T23:31:10.903Z,29.63
2018-01-07T23:33:46.250Z,23.97
2018-01-07T23:36:16.650Z,29.43
2018-01-07T23:38:49.370Z,26.77
2018-01-07T23:44:19.631Z,27.17
2018-01-07T23:46:52.263Z,24.03
2018-01-07T23:49:24.850Z,27.33
2018-01-07T23:52:00.551Z,27.17
2018-01-07T23:54:37.391Z,30.57
2018-01-07T23:57:06.171Z,29.50
2018-01-07T23:59:39.583Z,29.10
